Time;durP1;ratioP1;P1;durP2;ratioP2;P2;SDS_P1;SDS_P2;PMS_P1;PMS_P2;Temp;Humidity;BMP_temperature;BMP_pressure;BME280_temperature;BME280_humidity;BME280_pressure;Samples;Min_cycle;Max_cycle;Signal;HPM_P1;HPM_P2
2021/10/26 00:00:18;;;;;;;8.30;4.63;;;;;;;;;;4892062;29;20028;-86
2021/10/26 00:02:44;;;;;;;8.43;4.55;;;;;;;;;;4877692;29;20221;-85
2021/10/26 00:05:11;;;;;;;10.20;6.03;;;;;;;;;;4870041;29;20041;-86
2021/10/26 00:07:37;;;;;;;10.48;5.90;;;;;;;;;;4893452;29;20021;-86
2021/10/26 00:10:05;;;;;;;22.27;5.47;;;;;;;;;;4889362;29;20140;-85
2021/10/26 00:12:31;;;;;;;10.40;5.43;;;;;;;;;;4892042;29;20032;-85
2021/10/26 00:14:58;;;;;;;6.13;4.18;;;;;;;;;;4891181;29;20037;-86
2021/10/26 00:17:24;;;;;;;5.60;3.55;;;;;;;;;;4894476;29;20414;-86
2021/10/26 00:19:50;;;;;;;10.77;5.28;;;;;;;;;;4889142;29;20036;-86
2021/10/26 00:22:16;;;;;;;8.07;4.25;;;;;;;;;;4879140;29;20048;-85
2021/10/26 00:24:42;;;;;;;11.18;4.05;;;;;;;;;;4896880;29;20506;-85
2021/10/26 00:27:08;;;;;;;9.43;5.95;;;;;;;;;;4879728;29;20529;-87
2021/10/26 00:29:34;;;;;;;12.27;6.72;;;;;;;;;;4897565;29;20802;-85
2021/10/26 00:32:00;;;;;;;7.80;4.93;;;;;;;;;;4892455;29;20100;-85
2021/10/26 00:34:26;;;;;;;13.38;5.50;;;;;;;;;;4879324;29;20533;-85
2021/10/26 00:36:52;;;;;;;18.17;5.50;;;;;;;;;;4892253;29;20081;-86
2021/10/26 00:39:18;;;;;;;10.05;5.00;;;;;;;;;;4896662;29;20036;-85
2021/10/26 00:41:45;;;;;;;4.97;3.60;;;;;;;;;;4880847;29;20032;-86
2021/10/26 00:44:12;;;;;;;8.75;3.55;;;;;;;;;;4896684;29;20047;-85
2021/10/26 00:46:38;;;;;;;7.95;4.45;;;13.70;76.80;;;;;;4888804;29;20563;-85
2021/10/26 00:49:05;;;;;;;10.30;4.45;;;;;;;;;;4887461;29;20091;-85
2021/10/26 00:51:31;;;;;;;9.30;4.22;;;;;;;;;;4909104;29;20045;-85
2021/10/26 00:53:58;;;;;;;10.15;4.82;;;;;;;;;;4896631;29;20037;-85
2021/10/26 00:56:25;;;;;;;4.85;3.85;;;;;;;;;;4897214;29;20462;-86
2021/10/26 00:58:51;;;;;;;12.20;4.53;;;;;;;;;;4896265;29;20093;-86
2021/10/26 01:01:18;;;;;;;8.95;5.20;;;;;;;;;;4891577;29;20036;-85
2021/10/26 01:03:44;;;;;;;10.55;4.82;;;;;;;;;;4893147;29;20057;-85
2021/10/26 01:06:10;;;;;;;10.70;4.75;;;;;;;;;;4895471;29;24163;-86
2021/10/26 01:08:36;;;;;;;12.18;4.88;;;;;;;;;;4897272;29;20386;-85
2021/10/26 01:11:02;;;;;;;10.82;5.22;;;;;;;;;;4874657;29;20127;-85
2021/10/26 01:13:28;;;;;;;8.50;5.32;;;;;;;;;;4876592;29;20131;-86
2021/10/26 01:15:56;;;;;;;12.27;4.55;;;;;;;;;;4896398;29;20077;-85
2021/10/26 01:18:24;;;;;;;12.90;5.30;;;;;;;;;;4895363;29;20037;-86
2021/10/26 01:20:50;;;;;;;8.40;4.50;;;;;;;;;;4892787;29;20036;-85
2021/10/26 01:23:16;;;;;;;10.50;5.03;;;;;;;;;;4879211;29;20043;-85
2021/10/26 01:25:42;;;;;;;16.98;5.45;;;;;;;;;;4876416;29;20032;-85
2021/10/26 01:28:10;;;;;;;14.60;4.65;;;;;;;;;;4891624;29;20036;-86
2021/10/26 01:30:36;;;;;;;16.23;5.10;;;;;;;;;;4893460;29;20124;-85
2021/10/26 01:33:04;;;;;;;11.43;5.13;;;;;;;;;;4891897;29;20135;-85
2021/10/26 01:35:30;;;;;;;12.65;5.22;;;;;;;;;;4894576;29;20025;-85
2021/10/26 01:37:56;;;;;;;10.40;5.05;;;;;;;;;;4891366;29;20051;-85
2021/10/26 01:40:23;;;;;;;8.38;4.10;;;;;;;;;;4875792;29;20032;-86
2021/10/26 01:42:49;;;;;;;15.25;5.22;;;;;;;;;;4894275;29;20409;-85
2021/10/26 01:45:15;;;;;;;9.40;4.72;;;;;;;;;;4895578;29;20030;-85
2021/10/26 01:47:41;;;;;;;9.10;4.95;;;;;;;;;;4879107;29;20033;-85
2021/10/26 01:50:09;;;;;;;9.88;5.85;;;13.70;77.50;;;;;;4874548;29;20052;-85
2021/10/26 01:52:35;;;;;;;6.60;4.07;;;;;;;;;;4891594;29;20052;-85
2021/10/26 01:55:02;;;;;;;9.70;4.35;;;;;;;;;;4875941;29;20032;-85
2021/10/26 01:57:28;;;;;;;10.45;4.70;;;;;;;;;;4893920;29;20079;-86
2021/10/26 01:59:56;;;;;;;9.32;3.78;;;;;;;;;;4892247;29;20024;-86
2021/10/26 02:02:23;;;;;;;6.30;3.60;;;13.70;77.00;;;;;;4895042;29;20645;-85
2021/10/26 02:04:49;;;;;;;5.78;3.88;;;;;;;;;;4895397;29;20035;-84
2021/10/26 02:07:15;;;;;;;13.85;4.22;;;;;;;;;;4889748;29;20040;-85
2021/10/26 02:09:41;;;;;;;7.85;4.63;;;;;;;;;;4894981;29;20021;-85
2021/10/26 02:12:07;;;;;;;6.57;3.55;;;;;;;;;;4895034;29;20052;-85
2021/10/26 02:14:33;;;;;;;9.02;4.80;;;;;;;;;;4895655;29;20079;-85
2021/10/26 02:17:01;;;;;;;13.45;5.32;;;;;;;;;;4890695;29;20569;-85
2021/10/26 02:19:27;;;;;;;10.48;6.15;;;;;;;;;;4890369;29;20083;-84
2021/10/26 02:21:53;;;;;;;10.82;4.07;;;;;;;;;;4890936;29;20432;-85
2021/10/26 02:24:19;;;;;;;9.90;4.00;;;;;;;;;;4876616;29;20025;-84
2021/10/26 02:26:46;;;;;;;8.90;5.30;;;;;;;;;;4894674;29;20120;-86
2021/10/26 02:29:12;;;;;;;8.10;4.45;;;;;;;;;;4893881;29;20066;-86
2021/10/26 02:31:38;;;;;;;8.38;4.95;;;;;;;;;;4874510;29;20557;-85
2021/10/26 02:34:04;;;;;;;12.70;4.15;;;;;;;;;;4875072;29;20406;-85
2021/10/26 02:36:30;;;;;;;8.80;4.18;;;;;;;;;;4898492;29;20061;-85
2021/10/26 02:38:56;;;;;;;11.68;4.40;;;;;;;;;;4877436;29;20056;-85
2021/10/26 02:41:22;;;;;;;4.63;3.53;;;;;;;;;;4897498;29;20522;-85
2021/10/26 02:43:49;;;;;;;9.55;5.10;;;;;;;;;;4890420;29;20517;-84
2021/10/26 02:46:15;;;;;;;7.13;4.10;;;;;;;;;;4891035;29;20036;-86
2021/10/26 02:48:42;;;;;;;11.27;4.65;;;;;;;;;;4879336;29;20036;-86
2021/10/26 02:51:08;;;;;;;7.95;4.55;;;;;;;;;;4892893;29;20071;-86
2021/10/26 02:53:34;;;;;;;4.22;3.80;;;;;;;;;;4877367;29;20410;-85
2021/10/26 02:56:00;;;;;;;5.75;3.95;;;;;;;;;;4879299;29;20033;-86
2021/10/26 02:58:26;;;;;;;32.08;4.47;;;;;;;;;;4882363;29;20668;-85
2021/10/26 03:00:52;;;;;;;5.15;2.88;;;;;;;;;;4880144;29;20041;-85
2021/10/26 03:03:18;;;;;;;8.50;2.70;;;;;;;;;;4894156;29;20036;-84
2021/10/26 03:05:45;;;;;;;7.95;4.10;;;;;;;;;;4878200;29;20486;-86
2021/10/26 03:08:11;;;;;;;10.20;4.18;;;;;;;;;;4893812;29;20515;-85
2021/10/26 03:10:38;;;;;;;6.72;3.03;;;;;;;;;;4882249;29;20041;-85
2021/10/26 03:13:04;;;;;;;13.05;4.05;;;;;;;;;;4879819;29;20045;-86
2021/10/26 03:15:30;;;;;;;9.70;5.10;;;;;;;;;;4894135;29;20032;-85
2021/10/26 03:17:57;;;;;;;5.85;3.42;;;;;;;;;;4876888;29;20615;-86
2021/10/26 03:20:23;;;;;;;5.47;3.55;;;;;;;;;;4892924;29;20552;-86
2021/10/26 03:22:49;;;;;;;5.55;3.25;;;;;;;;;;4893923;29;20035;-85
2021/10/26 03:25:15;;;;;;;5.85;3.33;;;;;;;;;;4889764;29;20088;-85
2021/10/26 03:27:41;;;;;;;7.38;3.53;;;;;;;;;;4890450;29;20032;-86
2021/10/26 03:30:09;;;;;;;3.78;2.60;;;13.00;74.40;;;;;;4876246;29;20039;-85
2021/10/26 03:32:35;;;;;;;3.38;2.03;;;;;;;;;;4893416;29;20531;-86
2021/10/26 03:35:01;;;;;;;6.32;3.45;;;;;;;;;;4893843;29;20028;-85
2021/10/26 03:37:27;;;;;;;9.38;3.25;;;;;;;;;;4876036;29;20039;-85
2021/10/26 03:39:56;;;;;;;4.38;2.75;;;;;;;;;;4892102;29;20040;-86
2021/10/26 03:42:25;;;;;;;6.85;3.78;;;13.10;74.50;;;;;;4893261;29;20044;-86
2021/10/26 03:44:52;;;;;;;7.85;3.28;;;;;;;;;;4890862;29;20032;-85
2021/10/26 03:47:19;;;;;;;8.00;3.27;;;13.10;75.00;;;;;;4878500;29;20538;-85
2021/10/26 03:49:45;;;;;;;7.80;2.92;;;;;;;;;;4888370;29;20293;-86
2021/10/26 03:52:12;;;;;;;5.40;3.17;;;;;;;;;;4892745;29;20071;-86
2021/10/26 03:54:40;;;;;;;6.63;3.35;;;13.20;74.60;;;;;;4875204;29;20044;-85
2021/10/26 03:57:09;;;;;;;17.45;3.85;;;;;;;;;;4895979;29;20028;-84
2021/10/26 03:59:36;;;;;;;6.10;3.20;;;;;;;;;;4896639;29;20522;-85
2021/10/26 04:02:12;;;;;;;3.15;2.10;;;12.70;75.60;;;;;;4892211;29;20068;-85
2021/10/26 04:04:38;;;;;;;6.80;2.50;;;;;;;;;;4892784;29;20025;-85
2021/10/26 04:07:08;;;;;;;3.90;2.60;;;;;;;;;;4880795;29;20036;-85
2021/10/26 04:12:24;;;;;;;9.60;3.65;;;;;;;;;;4896524;29;20040;-86
2021/10/26 04:14:55;;;;;;;9.50;4.20;;;12.30;74.10;;;;;;4893858;29;20574;-84
2021/10/26 04:17:21;;;;;;;7.43;3.45;;;;;;;;;;4896740;29;20120;-84
2021/10/26 04:19:48;;;;;;;9.43;2.97;;;;;;;;;;4896510;29;20476;-86
2021/10/26 04:22:15;;;;;;;11.35;4.57;;;;;;;;;;4892482;29;20495;-86
2021/10/26 04:24:41;;;;;;;14.10;5.53;;;;;;;;;;4884980;29;20081;-86
2021/10/26 04:27:07;;;;;;;9.82;3.42;;;;;;;;;;4897014;29;20045;-84
2021/10/26 04:29:33;;;;;;;8.52;3.53;;;;;;;;;;4897307;29;20047;-85
2021/10/26 04:31:59;;;;;;;8.55;3.58;;;;;;;;;;4896893;29;20045;-86
2021/10/26 04:34:25;;;;;;;13.27;3.78;;;;;;;;;;4892627;29;20033;-85
2021/10/26 04:36:51;;;;;;;12.65;3.83;;;;;;;;;;4896800;29;20087;-85
2021/10/26 04:39:17;;;;;;;9.77;5.05;;;;;;;;;;4906457;29;20084;-86
2021/10/26 04:41:44;;;;;;;7.72;2.97;;;;;;;;;;4897447;29;20034;-85
2021/10/26 04:44:10;;;;;;;7.35;3.90;;;;;;;;;;4896333;29;20033;-85
2021/10/26 04:46:35;;;;;;;9.15;3.53;;;;;;;;;;4896408;29;20032;-85
2021/10/26 04:49:02;;;;;;;7.28;5.05;;;;;;;;;;4891443;29;20107;-86
2021/10/26 04:51:28;;;;;;;13.05;5.65;;;;;;;;;;4877777;29;20517;-85
2021/10/26 04:53:54;;;;;;;6.35;3.90;;;;;;;;;;4896374;29;20060;-85
2021/10/26 04:56:20;;;;;;;8.98;4.25;;;;;;;;;;4896871;29;20073;-86
2021/10/26 04:58:46;;;;;;;6.53;4.63;;;;;;;;;;4895936;29;20031;-84
2021/10/26 05:01:12;;;;;;;14.27;4.40;;;;;;;;;;4877926;29;20035;-85
2021/10/26 05:03:38;;;;;;;7.35;3.92;;;;;;;;;;4893262;29;20037;-85
2021/10/26 05:06:04;;;;;;;7.90;3.47;;;;;;;;;;4894275;29;20417;-85
2021/10/26 05:08:31;;;;;;;8.32;3.83;;;;;;;;;;4896197;29;20032;-85
2021/10/26 05:10:57;;;;;;;10.63;3.92;;;;;;;;;;4895631;29;20087;-86
2021/10/26 05:13:23;;;;;;;4.57;3.22;;;;;;;;;;4888529;29;20486;-86
2021/10/26 05:15:50;;;;;;;7.78;3.50;;;;;;;;;;4896011;29;20016;-86
2021/10/26 05:18:17;;;;;;;6.22;3.50;;;;;;;;;;4896000;29;20033;-85
2021/10/26 05:20:45;;;;;;;13.57;3.67;;;;;;;;;;4892020;29;20028;-86
2021/10/26 05:23:11;;;;;;;7.28;3.60;;;;;;;;;;4895511;29;20435;-86
2021/10/26 05:25:37;;;;;;;8.65;3.40;;;;;;;;;;4888116;29;20037;-85
2021/10/26 05:28:04;;;;;;;15.55;4.28;;;;;;;;;;4881210;29;20037;-87
2021/10/26 05:30:30;;;;;;;14.52;4.55;;;;;;;;;;4875625;29;20031;-85
2021/10/26 05:32:56;;;;;;;7.38;3.20;;;;;;;;;;4878875;29;20036;-86
2021/10/26 05:35:22;;;;;;;5.65;3.33;;;;;;;;;;4895940;29;20077;-85
2021/10/26 05:37:48;;;;;;;8.07;3.20;;;;;;;;;;4887789;29;20053;-86
2021/10/26 05:40:14;;;;;;;7.05;4.28;;;;;;;;;;4881329;29;20920;-85
2021/10/26 05:42:40;;;;;;;8.13;3.58;;;;;;;;;;4891880;29;20104;-85
2021/10/26 05:45:06;;;;;;;5.25;2.92;;;;;;;;;;4893131;29;20505;-85
2021/10/26 05:47:32;;;;;;;9.73;4.57;;;;;;;;;;4893706;29;20490;-85
2021/10/26 05:49:59;;;;;;;7.03;3.10;;;;;;;;;;4892131;29;20036;-86
2021/10/26 05:52:25;;;;;;;7.93;4.50;;;;;;;;;;4893689;29;20116;-84
2021/10/26 05:54:51;;;;;;;6.28;3.25;;;;;;;;;;4887836;29;20414;-85
2021/10/26 05:57:17;;;;;;;10.73;3.00;;;;;;;;;;4893868;29;20025;-85
2021/10/26 05:59:43;;;;;;;8.75;3.70;;;;;;;;;;4893911;29;20561;-85
2021/10/26 06:02:09;;;;;;;6.15;3.20;;;;;;;;;;4889112;29;20025;-85
2021/10/26 06:04:36;;;;;;;14.38;5.30;;;;;;;;;;4885859;29;20033;-86
2021/10/26 06:07:02;;;;;;;6.80;4.40;;;;;;;;;;4862784;29;20558;-85
2021/10/26 06:09:34;;;;;;;15.25;6.75;;;;;;;;;;4890574;29;20116;-86
2021/10/26 06:12:01;;;;;;;10.95;5.38;;;;;;;;;;4888290;29;20821;-86
2021/10/26 06:14:27;;;;;;;;;;;;;;;;;;4889675;29;20040;-85
2021/10/26 06:16:54;;;;;;;10.02;4.18;;;;;;;;;;4888280;29;19915;-84
2021/10/26 06:19:20;;;;;;;7.95;3.75;;;;;;;;;;4887852;29;20029;-84
2021/10/26 06:21:48;;;;;;;10.80;4.80;;;;;;;;;;4890836;29;20133;-85
2021/10/26 06:24:14;;;;;;;8.77;4.18;;;;;;;;;;4886462;29;20124;-85
2021/10/26 06:26:40;;;;;;;6.50;3.75;;;;;;;;;;4891745;29;20037;-85
2021/10/26 06:29:07;;;;;;;4.53;3.05;;;;;;;;;;4886389;29;20028;-84
2021/10/26 06:31:33;;;;;;;9.63;5.30;;;;;;;;;;4873403;29;20032;-84
2021/10/26 06:33:59;;;;;;;5.13;3.70;;;;;;;;;;4887185;29;20063;-85
2021/10/26 06:36:26;;;;;;;16.50;5.72;;;;;;;;;;4889924;29;20394;-85
2021/10/26 06:38:52;;;;;;;12.23;6.10;;;;;;;;;;4888823;29;20025;-85
2021/10/26 06:41:18;;;;;;;13.25;5.88;;;;;;;;;;4890683;29;20040;-85
2021/10/26 06:43:44;;;;;;;8.30;4.00;;;;;;;;;;4887736;29;20064;-85
2021/10/26 06:46:10;;;;;;;8.30;4.47;;;;;;;;;;4885219;29;20040;-84
2021/10/26 06:48:36;;;;;;;8.20;4.57;;;;;;;;;;4893742;29;20023;-85
2021/10/26 06:51:02;;;;;;;7.15;5.00;;;;;;;;;;4889405;29;20056;-84
2021/10/26 06:53:28;;;;;;;8.80;3.90;;;;;;;;;;4875283;29;20127;-86
2021/10/26 06:55:58;;;;;;;9.73;6.43;;;;;;;;;;4889187;29;20767;-86
2021/10/26 06:58:24;;;;;;;12.25;4.55;;;;;;;;;;4884260;29;20105;-86
2021/10/26 07:00:50;;;;;;;8.27;4.20;;;;;;;;;;4883106;29;20033;-86
2021/10/26 07:03:16;;;;;;;11.35;4.53;;;;;;;;;;4890724;29;20040;-86
2021/10/26 07:05:42;;;;;;;11.38;4.70;;;;;;;;;;4877218;29;20033;-86
2021/10/26 07:08:08;;;;;;;9.32;5.53;;;;;;;;;;4893034;29;20033;-86
2021/10/26 07:10:34;;;;;;;8.07;4.68;;;;;;;;;;4890265;29;20828;-86
2021/10/26 07:13:03;;;;;;;11.60;5.70;;;13.20;73.10;;;;;;4888424;29;20045;-87
2021/10/26 07:15:30;;;;;;;9.45;5.45;;;;;;;;;;4891117;29;20683;-87
2021/10/26 07:17:56;;;;;;;10.55;4.72;;;;;;;;;;4893108;29;20040;-86
2021/10/26 07:20:22;;;;;;;13.75;5.45;;;;;;;;;;4880939;29;20076;-86
2021/10/26 07:22:53;;;;;;;13.32;5.63;;;13.30;73.70;;;;;;4879519;29;20037;-86
2021/10/26 07:25:20;;;;;;;13.90;6.43;;;;;;;;;;4879655;29;20067;-86
2021/10/26 07:27:47;;;;;;;8.82;4.88;;;;;;;;;;4879144;29;20032;-86
2021/10/26 07:30:14;;;;;;;7.28;4.20;;;;;;;;;;4875629;29;20506;-86
2021/10/26 07:32:41;;;;;;;9.98;5.70;;;;;;;;;;4879916;29;20403;-85
2021/10/26 07:35:07;;;;;;;16.58;5.65;;;;;;;;;;4881505;29;20029;-85
2021/10/26 07:37:41;;;;;;;8.98;5.20;;;;;;;;;;4894005;29;20041;-86
2021/10/26 07:40:07;;;;;;;15.32;6.90;;;;;;;;;;4887537;29;20041;-84
2021/10/26 07:42:33;;;;;;;15.07;5.28;;;;;;;;;;4877072;29;20075;-85
2021/10/26 07:44:59;;;;;;;11.15;5.82;;;;;;;;;;4874954;29;20032;-89
2021/10/26 07:47:25;;;;;;;11.75;5.35;;;13.80;73.90;;;;;;4881127;29;20029;-86
2021/10/26 07:49:53;;;;;;;13.48;4.90;;;13.70;74.50;;;;;;4880378;29;20033;-86
2021/10/26 07:52:20;;;;;;;11.43;5.93;;;;;;;;;;4878564;29;20041;-85
2021/10/26 07:54:53;;;;;;;10.70;5.13;;;;;;;;;;4878832;29;20052;-84
2021/10/26 07:57:20;;;;;;;9.80;5.43;;;;;;;;;;4893904;29;20047;-86
2021/10/26 07:59:46;;;;;;;15.07;6.23;;;;;;;;;;4891454;29;20549;-86
2021/10/26 08:02:16;;;;;;;11.27;6.88;;;;;;;;;;4888872;29;20275;-84
2021/10/26 08:04:46;;;;;;;13.98;6.05;;;;;;;;;;4881055;29;20045;-85
2021/10/26 08:07:15;;;;;;;9.65;5.15;;;13.90;75.30;;;;;;4880046;29;20092;-85
2021/10/26 08:09:41;;;;;;;17.85;6.97;;;;;;;;;;4865765;29;20052;-85
2021/10/26 08:12:07;;;;;;;11.00;6.38;;;;;;;;;;4873511;29;20040;-84
2021/10/26 08:14:33;;;;;;;23.80;7.10;;;;;;;;;;4892854;29;20521;-86
2021/10/26 08:16:59;;;;;;;8.95;6.03;;;;;;;;;;4890662;29;20033;-86
2021/10/26 08:19:25;;;;;;;18.35;7.03;;;;;;;;;;4889508;29;20033;-85
2021/10/26 08:21:51;;;;;;;13.80;5.53;;;;;;;;;;4891317;29;20486;-85
2021/10/26 08:24:21;;;;;;;14.93;6.60;;;;;;;;;;4889726;29;20036;-84
2021/10/26 08:26:57;;;;;;;13.23;6.57;;;;;;;;;;4893431;29;20040;-85
2021/10/26 08:34:52;;;;;;;12.07;7.20;;;;;;;;;;4880490;29;20410;-85
2021/10/26 08:37:18;;;;;;;11.35;5.65;;;;;;;;;;4877345;29;20029;-85
2021/10/26 08:39:44;;;;;;;12.93;7.05;;;;;;;;;;4890758;29;20033;-85
2021/10/26 08:42:11;;;;;;;11.18;6.63;;;;;;;;;;4877551;29;20093;-85
2021/10/26 08:44:37;;;;;;;11.70;6.32;;;;;;;;;;4881221;29;20116;-86
2021/10/26 08:47:04;;;;;;;11.13;5.28;;;;;;;;;;4883690;29;20124;-86
2021/10/26 08:49:30;;;;;;;10.60;6.50;;;;;;;;;;4881679;29;20735;-87
2021/10/26 08:51:56;;;;;;;15.60;7.82;;;;;;;;;;4885354;29;20087;-87
2021/10/26 08:54:23;;;;;;;11.05;6.38;;;;;;;;;;4878565;29;20116;-86
2021/10/26 08:56:49;;;;;;;;;;;;;;;;;;4895231;29;20064;-85
2021/10/26 08:59:20;;;;;;;13.98;7.07;;;;;;;;;;4889667;29;19998;-86
2021/10/26 09:01:47;;;;;;;9.68;6.15;;;;;;;;;;4886847;29;20037;-85
2021/10/26 09:04:13;;;;;;;15.23;6.88;;;;;;;;;;4884013;29;20049;-85
2021/10/26 09:07:06;;;;;;;17.58;6.82;;;;;;;;;;4878817;29;20071;-85
2021/10/26 09:09:36;;;;;;;20.58;6.72;;;;;;;;;;4876128;29;20069;-85
2021/10/26 09:17:53;;;;;;;14.63;8.05;;;;;;;;;;4891908;29;20532;-85
2021/10/26 09:20:22;;;;;;;10.55;5.68;;;;;;;;;;4881176;29;20044;-86
2021/10/26 09:22:54;;;;;;;10.15;5.70;;;16.10;71.10;;;;;;4881301;29;20119;-85
2021/10/26 09:25:20;;;;;;;9.20;5.68;;;;;;;;;;4879043;29;20589;-84
2021/10/26 09:27:49;;;;;;;13.32;6.05;;;;;;;;;;4880540;29;20029;-86
2021/10/26 09:30:18;;;;;;;12.95;5.75;;;;;;;;;;4874835;29;20087;-86
2021/10/26 09:32:48;;;;;;;7.03;4.43;;;;;;;;;;4880598;29;20123;-85
2021/10/26 09:35:18;;;;;;;11.75;4.60;;;;;;;;;;4882923;29;20482;-86
2021/10/26 09:37:49;;;;;;;10.45;4.70;;;17.20;65.40;;;;;;4884847;29;20538;-87
2021/10/26 09:40:16;;;;;;;7.63;4.30;;;16.90;66.80;;;;;;4880385;29;20045;-86
2021/10/26 09:42:45;;;;;;;12.67;5.60;;;;;;;;;;4864417;29;20039;-86
2021/10/26 09:45:26;;;;;;;7.55;4.03;;;;;;;;;;4877000;29;20029;-85
2021/10/26 09:48:00;;;;;;;12.48;5.82;;;;;;;;;;4891093;29;20032;-85
2021/10/26 09:50:33;;;;;;;15.18;4.90;;;16.30;70.80;;;;;;4889557;29;20056;-85
2021/10/26 09:53:06;;;;;;;11.80;6.07;;;;;;;;;;4889420;29;20044;-85
2021/10/26 09:55:39;;;;;;;9.57;4.88;;;;;;;;;;4887735;29;20229;-85
2021/10/26 09:58:13;;;;;;;7.13;4.65;;;;;;;;;;4880622;29;20040;-86
2021/10/26 10:00:42;;;;;;;6.88;4.55;;;;;;;;;;4889672;29;20020;-86
2021/10/26 10:03:13;;;;;;;18.98;4.97;;;;;;;;;;4876922;29;20033;-85
2021/10/26 10:05:40;;;;;;;10.25;5.20;;;;;;;;;;4880790;29;20032;-85
2021/10/26 10:08:06;;;;;;;;;;;;;;;;;;4890631;29;20039;-86
2021/10/26 10:10:36;;;;;;;6.53;3.70;;;;;;;;;;4885004;29;19915;-86
2021/10/26 10:13:03;;;;;;;7.72;3.92;;;;;;;;;;4881114;29;20139;-84
2021/10/26 10:15:30;;;;;;;9.17;5.17;;;;;;;;;;4893590;29;20032;-86
2021/10/26 10:17:59;;;;;;;13.18;3.55;;;;;;;;;;4892466;29;20437;-86
2021/10/26 10:20:25;;;;;;;6.82;3.55;;;;;;;;;;4894878;29;20040;-86
2021/10/26 10:22:51;;;;;;;6.70;3.45;;;;;;;;;;4893110;29;20160;-85
2021/10/26 10:25:18;;;;;;;6.25;3.30;;;;;;;;;;4888457;29;20031;-86
2021/10/26 10:27:47;;;;;;;5.68;1.80;;;;;;;;;;4885091;29;20029;-86
2021/10/26 10:30:13;;;;;;;2.50;1.40;;;;;;;;;;4892278;29;20036;-85
2021/10/26 10:32:40;;;;;;;4.25;2.65;;;;;;;;;;4894580;29;20115;-85
2021/10/26 10:35:12;;;;;;;3.75;1.55;;;;;;;;;;4891571;29;20027;-84
2021/10/26 10:37:38;;;;;;;2.65;1.75;;;;;;;;;;4874717;29;20029;-84
2021/10/26 10:40:05;;;;;;;3.97;1.42;;;;;;;;;;4889151;29;20032;-86
2021/10/26 10:42:32;;;;;;;2.70;1.98;;;;;;;;;;4884876;29;20031;-85
2021/10/26 10:44:59;;;;;;;7.33;2.33;;;;;;;;;;4888496;29;20858;-85
2021/10/26 10:47:40;;;;;;;1.58;0.93;;;15.60;77.40;;;;;;4891630;29;20261;-85
2021/10/26 10:50:32;;;;;;;1.45;1.13;;;15.60;75.50;;;;;;4870960;29;20045;-87
2021/10/26 10:53:19;;;;;;;5.10;1.45;;;;;;;;;;4885820;29;20052;-86
2021/10/26 10:55:52;;;;;;;10.68;1.85;;;;;;;;;;4888513;29;20032;-84
2021/10/26 10:58:22;;;;;;;3.20;2.17;;;;;;;;;;4886550;29;20406;-87
2021/10/26 11:00:49;;;;;;;4.10;1.52;;;;;;;;;;4891242;29;20025;-86
2021/10/26 11:03:31;;;;;;;2.87;2.20;;;15.80;75.50;;;;;;4889944;29;20028;-86
2021/10/26 11:05:59;;;;;;;9.93;3.05;;;;;;;;;;4888821;29;20383;-87
2021/10/26 11:09:01;;;;;;;2.35;1.83;;;;;;;;;;4876941;29;20096;-86
2021/10/26 11:11:27;;;;;;;4.40;1.90;;;;;;;;;;4817484;29;20030;-87
2021/10/26 11:14:13;;;;;;;3.03;1.95;;;;;;;;;;4816075;29;20057;-86
2021/10/26 11:16:39;;;;;;;4.60;1.73;;;;;;;;;;4816898;29;20619;-88
2021/10/26 11:19:05;;;;;;;3.17;2.00;;;;;;;;;;4806666;29;20062;-89
2021/10/26 11:21:31;;;;;;;3.15;1.30;;;;;;;;;;4815734;29;20019;-86
2021/10/26 11:24:01;;;;;;;4.65;1.98;;;;;;;;;;4817212;29;20042;-87
2021/10/26 11:26:38;;;;;;;6.32;1.45;;;;;;;;;;4815557;29;20156;-87
2021/10/26 11:29:06;;;;;;;4.18;2.10;;;;;;;;;;4815355;29;20026;-86
2021/10/26 11:31:40;;;;;;;;;;;16.20;73.20;;;;;;4816223;29;20039;-86
2021/10/26 11:34:07;;;;;;;1.70;1.10;;;;;;;;;;4815930;29;20449;-87
2021/10/26 11:36:34;;;;;;;1.30;1.20;;;;;;;;;;4823680;29;20038;-84
2021/10/26 11:39:08;;;;;;;2.25;1.17;;;;;;;;;;4815953;29;20045;-87
2021/10/26 11:41:38;;;;;;;3.28;1.60;;;;;;;;;;4800072;29;20039;-86
2021/10/26 11:44:08;;;;;;;3.00;1.40;;;;;;;;;;4815732;29;20155;-86
2021/10/26 11:46:42;;;;;;;2.15;1.38;;;;;;;;;;4883096;29;20503;-85
2021/10/26 11:49:10;;;;;;;1.77;1.10;;;;;;;;;;4888755;29;20032;-85
2021/10/26 11:51:37;;;;;;;;;;;;;;;;;;4881472;29;20076;-87
2021/10/26 11:54:05;;;;;;;1.98;1.27;;;;;;;;;;4893093;29;19986;-87
2021/10/26 11:56:34;;;;;;;9.18;1.17;;;;;;;;;;4891172;29;20036;-87
2021/10/26 11:59:09;;;;;;;1.40;1.20;;;;;;;;;;4883001;29;20045;-87
2021/10/26 12:01:47;;;;;;;1.65;0.73;;;;;;;;;;4886160;29;20088;-84
2021/10/26 12:04:19;;;;;;;1.40;0.85;;;;;;;;;;4892024;29;20044;-86
2021/10/26 12:06:46;;;;;;;1.05;0.95;;;;;;;;;;4892068;29;20025;-83
2021/10/26 12:09:14;;;;;;;1.65;1.13;;;;;;;;;;4874734;29;20502;-84
2021/10/26 12:11:42;;;;;;;2.17;1.13;;;;;;;;;;4892740;29;20032;-84
2021/10/26 12:14:15;;;;;;;1.58;0.80;;;;;;;;;;4892045;29;20048;-84
2021/10/26 12:17:09;;;;;;;1.10;0.70;;;17.10;64.60;;;;;;4893851;29;20049;-84
2021/10/26 12:19:37;;;;;;;2.03;0.95;;;;;;;;;;4889371;29;20453;-84
2021/10/26 12:22:03;;;;;;;1.00;0.60;;;;;;;;;;4892944;29;20064;-83
2021/10/26 12:24:32;;;;;;;2.00;1.05;;;16.80;65.10;;;;;;4893954;29;20195;-85
2021/10/26 12:27:07;;;;;;;2.20;1.27;;;;;;;;;;4881198;29;20040;-84
2021/10/26 12:29:37;;;;;;;1.00;0.73;;;;;;;;;;4894381;29;20633;-83
2021/10/26 12:32:04;;;;;;;1.60;0.90;;;;;;;;;;4885936;29;20048;-84
2021/10/26 12:34:34;;;;;;;0.80;0.63;;;;;;;;;;4888071;29;20387;-84
2021/10/26 12:37:17;;;;;;;2.92;0.85;;;;;;;;;;4895757;29;20037;-85
2021/10/26 12:39:52;;;;;;;4.35;0.98;;;17.30;65.10;;;;;;4893185;29;20073;-83
2021/10/26 12:42:36;;;;;;;0.98;0.70;;;17.30;65.20;;;;;;4879424;29;20099;-83
2021/10/26 12:45:05;;;;;;;2.05;0.80;;;17.20;63.40;;;;;;4893042;29;20502;-83
2021/10/26 12:48:00;;;;;;;1.80;0.80;;;17.20;65.10;;;;;;4881481;29;20029;-83
2021/10/26 12:50:49;;;;;;;1.92;1.10;;;17.30;64.50;;;;;;4894656;29;20053;-82
2021/10/26 12:53:18;;;;;;;1.88;0.82;;;;;;;;;;4894713;29;20422;-83
2021/10/26 12:55:52;;;;;;;0.90;0.60;;;17.40;63.00;;;;;;4887877;29;20143;-83
2021/10/26 12:58:31;;;;;;;1.27;0.60;;;17.50;63.40;;;;;;4887948;29;20064;-84
2021/10/26 13:00:57;;;;;;;1.55;0.77;;;;;;;;;;4892820;29;20696;-84
2021/10/26 13:03:23;;;;;;;0.45;0.35;;;;;;;;;;4885921;29;20044;-83
2021/10/26 13:06:07;;;;;;;1.33;0.65;;;;;;;;;;4894905;29;20060;-84
2021/10/26 13:08:34;;;;;;;1.15;0.60;;;;;;;;;;4892266;29;20085;-83
2021/10/26 13:11:20;;;;;;;6.82;0.85;;;;;;;;;;4884611;29;20037;-84
2021/10/26 13:13:59;;;;;;;0.90;0.53;;;;;;;;;;4892986;29;20787;-84
2021/10/26 13:16:33;;;;;;;0.55;0.47;;;;;;;;;;4887786;29;20107;-84
2021/10/26 13:19:17;;;;;;;0.98;0.60;;;;;;;;;;4890448;29;20041;-88
2021/10/26 13:21:46;;;;;;;2.33;0.50;;;18.00;60.50;;;;;;4886068;29;20078;-86
2021/10/26 13:24:13;;;;;;;0.40;0.38;;;;;;;;;;4889610;29;20037;-86
2021/10/26 13:26:39;;;;;;;0.63;0.63;;;;;;;;;;4888968;29;20028;-85
2021/10/26 13:29:06;;;;;;;1.50;0.90;;;17.70;60.70;;;;;;4886889;29;20273;-87
2021/10/26 13:31:32;;;;;;;0.60;0.40;;;;;;;;;;4891696;29;20029;-86
2021/10/26 13:33:58;;;;;;;1.65;0.80;;;;;;;;;;4891960;29;20056;-85
2021/10/26 13:36:26;;;;;;;1.55;1.13;;;;;;;;;;4885106;29;20028;-85
2021/10/26 13:38:53;;;;;;;1.73;0.70;;;;;;;;;;4878283;29;20652;-86
2021/10/26 13:41:19;;;;;;;0.85;0.57;;;;;;;;;;4904669;29;20180;-88
2021/10/26 13:43:46;;;;;;;1.45;0.70;;;;;;;;;;4889128;29;20036;-87
2021/10/26 13:46:15;;;;;;;1.88;0.73;;;;;;;;;;4884779;29;20029;-87
2021/10/26 13:48:41;;;;;;;1.63;1.23;;;;;;;;;;4890557;29;20040;-86
2021/10/26 13:51:07;;;;;;;0.63;0.50;;;;;;;;;;4877593;29;20064;-87
2021/10/26 13:53:34;;;;;;;0.65;0.45;;;;;;;;;;4895793;29;20049;-87
2021/10/26 13:56:00;;;;;;;2.55;0.50;;;;;;;;;;4889327;29;20151;-87
2021/10/26 13:58:26;;;;;;;0.77;0.70;;;;;;;;;;4890796;29;20559;-88
2021/10/26 14:00:53;;;;;;;1.23;0.70;;;;;;;;;;4893368;29;20029;-87
2021/10/26 14:03:20;;;;;;;2.85;0.90;;;;;;;;;;4893158;29;20033;-86
2021/10/26 14:05:46;;;;;;;1.13;0.70;;;;;;;;;;4890793;29;20119;-87
2021/10/26 14:08:13;;;;;;;2.00;0.68;;;16.90;59.60;;;;;;4885836;29;20128;-86
2021/10/26 14:10:40;;;;;;;2.20;0.60;;;;;;;;;;4884676;29;20514;-85
2021/10/26 14:13:07;;;;;;;1.17;0.40;;;16.90;60.70;;;;;;4883528;29;20450;-85
2021/10/26 14:15:33;;;;;;;1.05;0.50;;;;;;;;;;4891020;29;20281;-84
2021/10/26 14:18:00;;;;;;;0.50;0.50;;;;;;;;;;4890530;29;20040;-85
2021/10/26 14:20:27;;;;;;;1.10;0.40;;;;;;;;;;4885985;29;20081;-87
2021/10/26 14:22:54;;;;;;;5.53;0.80;;;;;;;;;;4884578;29;20060;-85
2021/10/26 14:25:21;;;;;;;2.22;0.50;;;;;;;;;;4881221;29;20494;-86
2021/10/26 14:27:52;;;;;;;0.30;0.30;;;16.80;59.80;;;;;;4879852;29;20033;-85
2021/10/26 14:30:18;;;;;;;1.13;0.57;;;;;;;;;;4859512;29;20021;-86
2021/10/26 14:32:52;;;;;;;0.40;0.40;;;;;;;;;;4876564;29;20115;-86
2021/10/26 14:35:34;;;;;;;2.75;0.35;;;16.90;59.50;;;;;;4876136;29;20035;-87
2021/10/26 14:38:10;;;;;;;0.60;0.40;;;;;;;;;;4884759;29;20041;-84
2021/10/26 14:56:38;;;;;;;1.13;0.57;;;17.00;56.30;;;;;;4879482;29;20061;-87
2021/10/26 14:59:06;;;;;;;0.52;0.50;;;;;;;;;;4880769;29;20041;-85
2021/10/26 15:01:34;;;;;;;0.30;0.30;;;;;;;;;;4877947;29;20021;-85